ポンタ・デルガダ の空港の天気 - METARとTAF

ポンタ・デルガダ空港 ( LPPD / PDL ) - ポルトガル ポンタ・デルガダ (サンミゲル島)
飛行場実況気象(Metar)
観測時間12/10 04:00 AZOT (12/10 05:00 UTC)
風向・風速南南東 6m/s
視程10km以上
天気現象
全天の4割程度の雲 雲底高度 240m
全天の8割程度の雲 雲底高度 1220m
気温17℃
湿度94%
気圧1023hPa
METARLPPD 100500Z 16011KT 9999 SCT008 BKN040 17/16 Q1023
過去の天気等 Google飛行場航空写真 Wunderground天気予報

過去48時間のMETAR

飛行場予報(TAF)
発表時間: 12/10 04:00 AZOT (12/10 05:00 UTC)
予報対象時間: 10日5時 AZOT ~ 11日5時 AZOT
風向・風速南南東 7m/s
視程10km以上
全天の4割程度の雲 雲底高度 370m
全天の4割程度の雲 雲底高度 910m
10日5時 AZOT ~ 10日11時 AZOT に 確率 30% で一時的に
全天の8割程度の雲 雲底高度 240m
10日9時 AZOT ~ 10日11時 AZOT に徐々に
風向・風速南西 8m/s
少しの雲 雲底高度 180m
全天の8割程度の雲 雲底高度 370m
10日14時 AZOT ~ 10日18時 AZOT に一時的に
視程3000m
天気現象雨霧雨 もや
全天の4割程度の雲 雲底高度 120m
全天の8割程度の雲 雲底高度 240m
10日18時 AZOT ~ 10日20時 AZOT に徐々に
風向・風速北西 8m/s
全天の4割程度の雲 雲底高度 610m
TAF LPPD 100500Z 1006/1106 16013KT 9999 SCT012 SCT030
PROB30 TEMPO 1006/1012 BKN008
BECMG 1010/1012 22015KT FEW006 BKN012
TEMPO 1015/1019 3000 RADZ BR SCT004 BKN008
BECMG 1019/1021 32015KT SCT020